sensor_id;sensor_type;location;lat;lon;timestamp;pressure;altitude;pressure_sealevel;temperature;humidity
70815;BME280;58428;49.478;10.986;2023-08-08T00:02:20;98518.47;;;12.53;100.00
70815;BME280;58428;49.478;10.986;2023-08-08T00:04:45;98517.25;;;12.50;100.00
70815;BME280;58428;49.478;10.986;2023-08-08T00:07:11;98521.38;;;12.48;100.00
70815;BME280;58428;49.478;10.986;2023-08-08T00:09:37;98526.63;;;12.53;100.00
70815;BME280;58428;49.478;10.986;2023-08-08T00:12:03;98520.50;;;12.56;100.00
70815;BME280;58428;49.478;10.986;2023-08-08T00:14:29;98522.88;;;12.57;100.00
70815;BME280;58428;49.478;10.986;2023-08-08T00:16:54;98518.38;;;12.61;100.00
70815;BME280;58428;49.478;10.986;2023-08-08T00:19:20;98513.41;;;12.63;100.00
70815;BME280;58428;49.478;10.986;2023-08-08T00:21:46;98513.06;;;12.65;100.00
70815;BME280;58428;49.478;10.986;2023-08-08T00:24:12;98506.84;;;12.64;100.00
70815;BME280;58428;49.478;10.986;2023-08-08T00:26:38;98506.53;;;12.66;100.00
70815;BME280;58428;49.478;10.986;2023-08-08T00:29:05;98515.00;;;12.64;100.00
70815;BME280;58428;49.478;10.986;2023-08-08T00:31:31;98512.75;;;12.66;100.00
70815;BME280;58428;49.478;10.986;2023-08-08T00:33:57;98515.34;;;12.63;100.00
70815;BME280;58428;49.478;10.986;2023-08-08T00:36:22;98518.03;;;12.63;100.00
70815;BME280;58428;49.478;10.986;2023-08-08T00:38:48;98507.78;;;12.68;100.00
70815;BME280;58428;49.478;10.986;2023-08-08T00:41:14;98508.56;;;12.69;100.00
70815;BME280;58428;49.478;10.986;2023-08-08T00:43:39;98505.84;;;12.69;100.00
70815;BME280;58428;49.478;10.986;2023-08-08T00:46:05;98501.56;;;12.68;100.00
70815;BME280;58428;49.478;10.986;2023-08-08T00:48:30;98499.03;;;12.63;100.00
70815;BME280;58428;49.478;10.986;2023-08-08T00:50:56;98495.88;;;12.61;100.00
70815;BME280;58428;49.478;10.986;2023-08-08T00:53:21;98505.13;;;12.60;100.00
70815;BME280;58428;49.478;10.986;2023-08-08T00:55:49;98498.13;;;12.59;100.00
70815;BME280;58428;49.478;10.986;2023-08-08T00:58:16;98498.13;;;12.59;100.00
70815;BME280;58428;49.478;10.986;2023-08-08T01:00:41;98497.69;;;12.57;100.00
70815;BME280;58428;49.478;10.986;2023-08-08T01:03:07;98503.91;;;12.57;100.00
70815;BME280;58428;49.478;10.986;2023-08-08T01:05:39;98498.59;;;12.61;100.00
70815;BME280;58428;49.478;10.986;2023-08-08T01:08:07;98498.25;;;12.62;100.00
70815;BME280;58428;49.478;10.986;2023-08-08T01:10:39;98494.28;;;12.60;100.00
70815;BME280;58428;49.478;10.986;2023-08-08T01:13:13;98492.00;;;12.62;100.00
70815;BME280;58428;49.478;10.986;2023-08-08T01:15:44;98493.63;;;12.63;100.00
70815;BME280;58428;49.478;10.986;2023-08-08T01:18:11;98487.53;;;12.66;100.00
70815;BME280;58428;49.478;10.986;2023-08-08T01:20:37;98494.66;;;12.70;100.00
70815;BME280;58428;49.478;10.986;2023-08-08T01:23:11;98489.69;;;12.72;100.00
70815;BME280;58428;49.478;10.986;2023-08-08T01:25:39;98488.91;;;12.72;100.00
70815;BME280;58428;49.478;10.986;2023-08-08T01:28:06;98490.00;;;12.71;100.00
70815;BME280;58428;49.478;10.986;2023-08-08T01:30:31;98488.78;;;12.68;100.00
70815;BME280;58428;49.478;10.986;2023-08-08T01:32:57;98486.19;;;12.72;100.00
70815;BME280;58428;49.478;10.986;2023-08-08T01:35:25;98483.91;;;12.74;100.00
70815;BME280;58428;49.478;10.986;2023-08-08T01:38:08;98478.13;;;12.75;100.00
70815;BME280;58428;49.478;10.986;2023-08-08T01:40:41;98478.50;;;12.74;100.00
70815;BME280;58428;49.478;10.986;2023-08-08T01:43:08;98474.63;;;12.75;100.00
70815;BME280;58428;49.478;10.986;2023-08-08T01:45:36;98481.19;;;12.74;100.00
70815;BME280;58428;49.478;10.986;2023-08-08T01:48:09;98481.53;;;12.72;100.00
70815;BME280;58428;49.478;10.986;2023-08-08T01:50:36;98490.34;;;12.69;100.00
70815;BME280;58428;49.478;10.986;2023-08-08T01:53:03;98492.28;;;12.69;100.00
70815;BME280;58428;49.478;10.986;2023-08-08T01:55:31;98488.66;;;12.65;100.00
70815;BME280;58428;49.478;10.986;2023-08-08T01:57:56;98484.69;;;12.62;100.00
70815;BME280;58428;49.478;10.986;2023-08-08T02:00:23;98482.97;;;12.58;100.00
70815;BME280;58428;49.478;10.986;2023-08-08T02:02:50;98477.53;;;12.58;100.00
70815;BME280;58428;49.478;10.986;2023-08-08T02:05:16;98478.00;;;12.60;100.00
70815;BME280;58428;49.478;10.986;2023-08-08T02:07:46;98479.72;;;12.64;100.00
70815;BME280;58428;49.478;10.986;2023-08-08T02:10:13;98478.38;;;12.70;100.00
70815;BME280;58428;49.478;10.986;2023-08-08T02:12:41;98479.28;;;12.74;100.00
70815;BME280;58428;49.478;10.986;2023-08-08T02:15:06;98477.16;;;12.80;100.00
70815;BME280;58428;49.478;10.986;2023-08-08T02:17:32;98478.41;;;12.82;100.00
70815;BME280;58428;49.478;10.986;2023-08-08T02:19:57;98487.00;;;12.84;100.00
70815;BME280;58428;49.478;10.986;2023-08-08T02:22:25;98486.22;;;12.84;100.00
70815;BME280;58428;49.478;10.986;2023-08-08T02:24:50;98486.56;;;12.82;100.00
70815;BME280;58428;49.478;10.986;2023-08-08T02:27:17;98484.16;;;12.81;100.00
70815;BME280;58428;49.478;10.986;2023-08-08T02:29:44;98485.94;;;12.77;100.00
70815;BME280;58428;49.478;10.986;2023-08-08T02:32:10;98488.19;;;12.75;100.00
70815;BME280;58428;49.478;10.986;2023-08-08T02:34:35;98481.53;;;12.72;100.00
70815;BME280;58428;49.478;10.986;2023-08-08T02:37:01;98477.69;;;12.73;100.00
70815;BME280;58428;49.478;10.986;2023-08-08T02:39:27;98487.41;;;12.74;100.00
70815;BME280;58428;49.478;10.986;2023-08-08T02:41:53;98491.69;;;12.75;100.00
70815;BME280;58428;49.478;10.986;2023-08-08T02:44:18;98496.03;;;12.76;100.00
70815;BME280;58428;49.478;10.986;2023-08-08T02:46:44;98499.53;;;12.77;100.00
70815;BME280;58428;49.478;10.986;2023-08-08T02:49:10;98499.34;;;12.82;100.00
70815;BME280;58428;49.478;10.986;2023-08-08T02:51:35;98492.75;;;12.83;100.00
70815;BME280;58428;49.478;10.986;2023-08-08T02:54:01;98498.97;;;12.83;100.00
70815;BME280;58428;49.478;10.986;2023-08-08T02:56:26;98493.22;;;12.85;100.00
70815;BME280;58428;49.478;10.986;2023-08-08T02:58:53;98487.47;;;12.86;100.00
70815;BME280;58428;49.478;10.986;2023-08-08T03:01:20;98485.84;;;12.85;100.00
70815;BME280;58428;49.478;10.986;2023-08-08T03:03:47;98484.63;;;12.83;100.00
70815;BME280;58428;49.478;10.986;2023-08-08T03:06:14;98471.81;;;12.83;100.00
70815;BME280;58428;49.478;10.986;2023-08-08T03:08:41;98462.25;;;12.86;100.00
70815;BME280;58428;49.478;10.986;2023-08-08T03:11:08;98471.50;;;12.85;100.00
70815;BME280;58428;49.478;10.986;2023-08-08T03:13:33;98467.22;;;12.84;100.00
70815;BME280;58428;49.478;10.986;2023-08-08T03:15:59;98468.88;;;12.76;100.00
70815;BME280;58428;49.478;10.986;2023-08-08T03:18:29;98468.53;;;12.78;100.00
70815;BME280;58428;49.478;10.986;2023-08-08T03:20:55;98474.44;;;12.80;100.00
70815;BME280;58428;49.478;10.986;2023-08-08T03:23:21;98471.59;;;12.76;100.00
70815;BME280;58428;49.478;10.986;2023-08-08T03:25:48;98481.88;;;12.71;100.00
70815;BME280;58428;49.478;10.986;2023-08-08T03:28:14;98485.03;;;12.61;100.00
70815;BME280;58428;49.478;10.986;2023-08-08T03:30:39;98479.13;;;12.59;100.00
70815;BME280;58428;49.478;10.986;2023-08-08T03:33:05;98476.28;;;12.55;100.00
70815;BME280;58428;49.478;10.986;2023-08-08T03:35:30;98481.50;;;12.49;100.00
70815;BME280;58428;49.478;10.986;2023-08-08T03:37:56;98478.53;;;12.42;100.00
70815;BME280;58428;49.478;10.986;2023-08-08T03:40:21;98482.59;;;12.36;100.00
70815;BME280;58428;49.478;10.986;2023-08-08T03:42:51;98485.63;;;12.34;100.00
70815;BME280;58428;49.478;10.986;2023-08-08T03:45:16;98486.31;;;12.31;100.00
70815;BME280;58428;49.478;10.986;2023-08-08T03:47:42;98485.84;;;12.29;100.00
70815;BME280;58428;49.478;10.986;2023-08-08T03:50:08;98488.78;;;12.24;100.00
70815;BME280;58428;49.478;10.986;2023-08-08T03:52:34;98487.84;;;12.20;100.00
70815;BME280;58428;49.478;10.986;2023-08-08T03:55:02;98494.28;;;12.16;100.00
70815;BME280;58428;49.478;10.986;2023-08-08T03:57:28;98487.81;;;12.09;100.00
70815;BME280;58428;49.478;10.986;2023-08-08T03:59:55;98492.78;;;12.07;100.00
70815;BME280;58428;49.478;10.986;2023-08-08T04:02:20;98493.25;;;12.09;100.00
70815;BME280;58428;49.478;10.986;2023-08-08T04:04:46;98498.66;;;12.09;100.00
70815;BME280;58428;49.478;10.986;2023-08-08T04:07:11;98493.09;;;12.05;100.00
70815;BME280;58428;49.478;10.986;2023-08-08T04:09:38;98491.53;;;12.04;100.00
70815;BME280;58428;49.478;10.986;2023-08-08T04:12:03;98493.09;;;12.05;100.00
70815;BME280;58428;49.478;10.986;2023-08-08T04:14:29;98484.19;;;12.05;100.00
70815;BME280;58428;49.478;10.986;2023-08-08T04:16:56;98491.06;;;12.02;100.00
70815;BME280;58428;49.478;10.986;2023-08-08T04:19:21;98499.84;;;11.99;100.00
70815;BME280;58428;49.478;10.986;2023-08-08T04:21:46;98506.19;;;12.03;100.00
70815;BME280;58428;49.478;10.986;2023-08-08T04:24:12;98503.50;;;12.03;100.00
70815;BME280;58428;49.478;10.986;2023-08-08T04:26:38;98505.41;;;12.03;100.00
70815;BME280;58428;49.478;10.986;2023-08-08T04:29:04;98509.13;;;11.98;100.00
70815;BME280;58428;49.478;10.986;2023-08-08T04:31:30;98505.16;;;11.96;100.00
70815;BME280;58428;49.478;10.986;2023-08-08T04:33:55;98503.91;;;11.93;100.00
70815;BME280;58428;49.478;10.986;2023-08-08T04:36:26;98503.56;;;11.95;100.00
70815;BME280;58428;49.478;10.986;2023-08-08T04:38:51;98505.50;;;11.94;100.00
70815;BME280;58428;49.478;10.986;2023-08-08T04:41:17;98505.16;;;11.96;100.00
70815;BME280;58428;49.478;10.986;2023-08-08T04:43:42;98495.44;;;11.95;100.00
70815;BME280;58428;49.478;10.986;2023-08-08T04:46:08;98498.47;;;11.93;100.00
70815;BME280;58428;49.478;10.986;2023-08-08T04:48:34;98502.78;;;11.94;100.00
70815;BME280;58428;49.478;10.986;2023-08-08T04:51:00;98502.53;;;11.87;100.00
70815;BME280;58428;49.478;10.986;2023-08-08T04:53:26;98499.81;;;11.87;100.00
70815;BME280;58428;49.478;10.986;2023-08-08T04:55:53;98497.56;;;11.89;100.00
70815;BME280;58428;49.478;10.986;2023-08-08T04:58:19;98499.81;;;11.87;100.00
70815;BME280;58428;49.478;10.986;2023-08-08T05:00:44;98490.88;;;11.87;100.00
70815;BME280;58428;49.478;10.986;2023-08-08T05:03:10;98501.41;;;11.88;100.00
70815;BME280;58428;49.478;10.986;2023-08-08T05:05:35;98498.34;;;11.90;100.00
70815;BME280;58428;49.478;10.986;2023-08-08T05:08:02;98497.22;;;11.91;100.00
70815;BME280;58428;49.478;10.986;2023-08-08T05:10:28;98505.81;;;11.93;100.00
70815;BME280;58428;49.478;10.986;2023-08-08T05:12:53;98489.56;;;11.93;100.00
70815;BME280;58428;49.478;10.986;2023-08-08T05:15:19;98496.03;;;12.00;100.00
70815;BME280;58428;49.478;10.986;2023-08-08T05:17:46;98506.19;;;12.03;100.00
70815;BME280;58428;49.478;10.986;2023-08-08T05:20:11;98500.91;;;12.07;100.00
70815;BME280;58428;49.478;10.986;2023-08-08T05:22:38;98499.13;;;12.11;100.00
70815;BME280;58428;49.478;10.986;2023-08-08T05:25:05;98497.59;;;12.21;100.00
70815;BME280;58428;49.478;10.986;2023-08-08T05:27:32;98497.63;;;12.33;100.00
70815;BME280;58428;49.478;10.986;2023-08-08T05:29:59;98510.44;;;12.45;100.00
70815;BME280;58428;49.478;10.986;2023-08-08T05:32:25;98500.13;;;12.50;100.00
70815;BME280;58428;49.478;10.986;2023-08-08T05:34:52;98492.91;;;12.54;100.00
70815;BME280;58428;49.478;10.986;2023-08-08T05:37:17;98495.28;;;12.55;100.00
70815;BME280;58428;49.478;10.986;2023-08-08T05:39:44;98498.13;;;12.59;100.00
70815;BME280;58428;49.478;10.986;2023-08-08T05:42:10;98501.75;;;12.63;100.00
70815;BME280;58428;49.478;10.986;2023-08-08T05:44:35;98490.00;;;12.71;100.00
70815;BME280;58428;49.478;10.986;2023-08-08T05:47:01;98484.00;;;12.77;100.00
70815;BME280;58428;49.478;10.986;2023-08-08T05:49:26;98493.22;;;12.85;100.00
70815;BME280;58428;49.478;10.986;2023-08-08T05:51:53;98486.88;;;12.92;100.00
70815;BME280;58428;49.478;10.986;2023-08-08T05:54:19;98488.69;;;13.00;100.00
70815;BME280;58428;49.478;10.986;2023-08-08T05:56:45;98486.22;;;13.07;100.00
70815;BME280;58428;49.478;10.986;2023-08-08T05:59:11;98482.94;;;13.14;100.00
70815;BME280;58428;49.478;10.986;2023-08-08T06:01:36;98489.16;;;13.26;100.00
70815;BME280;58428;49.478;10.986;2023-08-08T06:04:03;98490.38;;;13.40;100.00
70815;BME280;58428;49.478;10.986;2023-08-08T06:06:28;98483.81;;;13.53;100.00
70815;BME280;58428;49.478;10.986;2023-08-08T06:08:54;98496.56;;;13.76;100.00
70815;BME280;58428;49.478;10.986;2023-08-08T06:11:19;98500.91;;;14.04;100.00
70815;BME280;58428;49.478;10.986;2023-08-08T06:13:46;98487.91;;;14.25;100.00
70815;BME280;58428;49.478;10.986;2023-08-08T06:16:13;98478.88;;;14.36;100.00
70815;BME280;58428;49.478;10.986;2023-08-08T06:18:41;98472.63;;;14.36;100.00
70815;BME280;58428;49.478;10.986;2023-08-08T06:21:07;98475.63;;;14.31;100.00
70815;BME280;58428;49.478;10.986;2023-08-08T06:23:33;98478.13;;;14.24;100.00
70815;BME280;58428;49.478;10.986;2023-08-08T06:25:58;98474.09;;;14.18;100.00
70815;BME280;58428;49.478;10.986;2023-08-08T06:28:24;98478.28;;;14.16;100.00
70815;BME280;58428;49.478;10.986;2023-08-08T06:30:50;98474.09;;;14.18;100.00
70815;BME280;58428;49.478;10.986;2023-08-08T06:33:16;98478.06;;;14.21;100.00
70815;BME280;58428;49.478;10.986;2023-08-08T06:35:42;98477.63;;;14.34;100.00
70815;BME280;58428;49.478;10.986;2023-08-08T06:38:09;98466.25;;;14.44;100.00
70815;BME280;58428;49.478;10.986;2023-08-08T06:40:37;98474.16;;;14.49;100.00
70815;BME280;58428;49.478;10.986;2023-08-08T06:43:02;98471.44;;;14.64;100.00
70815;BME280;58428;49.478;10.986;2023-08-08T06:45:28;98472.88;;;14.73;100.00
70815;BME280;58428;49.478;10.986;2023-08-08T06:47:55;98471.13;;;14.81;100.00
70815;BME280;58428;49.478;10.986;2023-08-08T06:50:20;98467.97;;;14.94;100.00
70815;BME280;58428;49.478;10.986;2023-08-08T06:52:45;98462.03;;;15.07;100.00
70815;BME280;58428;49.478;10.986;2023-08-08T06:55:11;98463.56;;;15.20;100.00
70815;BME280;58428;49.478;10.986;2023-08-08T06:57:36;98460.13;;;15.23;100.00
70815;BME280;58428;49.478;10.986;2023-08-08T07:00:03;98456.69;;;15.26;100.00
70815;BME280;58428;49.478;10.986;2023-08-08T07:02:31;98463.97;;;15.22;100.00
70815;BME280;58428;49.478;10.986;2023-08-08T07:04:58;98454.59;;;15.20;100.00
70815;BME280;58428;49.478;10.986;2023-08-08T07:07:24;98447.28;;;15.24;100.00
70815;BME280;58428;49.478;10.986;2023-08-08T07:09:50;98457.56;;;15.30;100.00
70815;BME280;58428;49.478;10.986;2023-08-08T07:12:15;98449.97;;;15.39;100.00
70815;BME280;58428;49.478;10.986;2023-08-08T07:14:41;98453.38;;;15.51;100.00
70815;BME280;58428;49.478;10.986;2023-08-08T07:17:06;98447.69;;;15.60;100.00
70815;BME280;58428;49.478;10.986;2023-08-08T07:19:36;98451.19;;;15.76;100.00
70815;BME280;58428;49.478;10.986;2023-08-08T07:22:03;98448.38;;;15.91;100.00
70815;BME280;58428;49.478;10.986;2023-08-08T07:24:28;98440.41;;;16.01;100.00
70815;BME280;58428;49.478;10.986;2023-08-08T07:26:56;98444.31;;;16.19;100.00
70815;BME280;58428;49.478;10.986;2023-08-08T07:29:22;98440.63;;;16.30;100.00
70815;BME280;58428;49.478;10.986;2023-08-08T07:31:47;98434.13;;;16.38;100.00
70815;BME280;58428;49.478;10.986;2023-08-08T07:34:12;98433.47;;;16.45;100.00
70815;BME280;58428;49.478;10.986;2023-08-08T07:36:38;98428.56;;;16.54;100.00
70815;BME280;58428;49.478;10.986;2023-08-08T07:39:06;98430.19;;;16.58;100.00
70815;BME280;58428;49.478;10.986;2023-08-08T07:41:33;98432.25;;;16.64;100.00
70815;BME280;58428;49.478;10.986;2023-08-08T07:43:58;98426.63;;;16.76;100.00
70815;BME280;58428;49.478;10.986;2023-08-08T07:46:23;98422.44;;;16.82;100.00
70815;BME280;58428;49.478;10.986;2023-08-08T07:48:51;98421.47;;;16.94;100.00
70815;BME280;58428;49.478;10.986;2023-08-08T07:51:17;98419.72;;;17.08;100.00
70815;BME280;58428;49.478;10.986;2023-08-08T07:53:43;98428.47;;;17.17;100.00
70815;BME280;58428;49.478;10.986;2023-08-08T07:56:08;98423.91;;;17.24;100.00
70815;BME280;58428;49.478;10.986;2023-08-08T07:58:33;98422.84;;;17.32;100.00
70815;BME280;58428;49.478;10.986;2023-08-08T08:00:59;98416.16;;;17.55;100.00
70815;BME280;58428;49.478;10.986;2023-08-08T08:03:26;98410.97;;;17.76;100.00
70815;BME280;58428;49.478;10.986;2023-08-08T08:05:53;98409.56;;;17.89;100.00
70815;BME280;58428;49.478;10.986;2023-08-08T08:08:18;98410.50;;;18.03;100.00
70815;BME280;58428;49.478;10.986;2023-08-08T08:10:44;98400.09;;;18.12;100.00
70815;BME280;58428;49.478;10.986;2023-08-08T08:13:11;98405.81;;;18.36;100.00
70815;BME280;58428;49.478;10.986;2023-08-08T08:15:37;98409.19;;;18.59;100.00
70815;BME280;58428;49.478;10.986;2023-08-08T08:18:04;98396.19;;;18.49;100.00
70815;BME280;58428;49.478;10.986;2023-08-08T08:20:30;98397.28;;;18.41;100.00
70815;BME280;58428;49.478;10.986;2023-08-08T08:22:55;98393.84;;;18.51;100.00
70815;BME280;58428;49.478;10.986;2023-08-08T08:25:20;98392.50;;;18.35;100.00
70815;BME280;58428;49.478;10.986;2023-08-08T08:27:47;98393.78;;;18.44;100.00
70815;BME280;58428;49.478;10.986;2023-08-08T08:30:14;98396.13;;;18.45;100.00
70815;BME280;58428;49.478;10.986;2023-08-08T08:32:41;98395.34;;;18.45;100.00
70815;BME280;58428;49.478;10.986;2023-08-08T08:35:07;98398.50;;;18.47;100.00
70815;BME280;58428;49.478;10.986;2023-08-08T08:37:33;98393.16;;;18.61;100.00
70815;BME280;58428;49.478;10.986;2023-08-08T08:39:59;98399.09;;;18.66;100.00
70815;BME280;58428;49.478;10.986;2023-08-08T08:42:26;98380.66;;;18.63;100.00
70815;BME280;58428;49.478;10.986;2023-08-08T08:44:57;98387.44;;;18.76;100.00
70815;BME280;58428;49.478;10.986;2023-08-08T08:47:24;98383.00;;;19.08;100.00
70815;BME280;58428;49.478;10.986;2023-08-08T08:49:50;98384.00;;;19.43;100.00
70815;BME280;58428;49.478;10.986;2023-08-08T08:52:16;98384.84;;;19.54;100.00
70815;BME280;58428;49.478;10.986;2023-08-08T08:54:42;98384.50;;;19.62;100.00
70815;BME280;58428;49.478;10.986;2023-08-08T08:57:08;98396.25;;;19.62;100.00
70815;BME280;58428;49.478;10.986;2023-08-08T08:59:34;98393.81;;;19.44;100.00
70815;BME280;58428;49.478;10.986;2023-08-08T09:02:00;98389.88;;;19.41;100.00
70815;BME280;58428;49.478;10.986;2023-08-08T09:04:28;98386.38;;;19.44;100.00
70815;BME280;58428;49.478;10.986;2023-08-08T09:06:54;98382.91;;;19.57;100.00
70815;BME280;58428;49.478;10.986;2023-08-08T09:09:20;98383.69;;;19.51;100.00
70815;BME280;58428;49.478;10.986;2023-08-08T09:11:53;98386.78;;;19.46;100.00
70815;BME280;58428;49.478;10.986;2023-08-08T09:14:23;98379.69;;;19.42;100.00
70815;BME280;58428;49.478;10.986;2023-08-08T09:16:50;98373.00;;;19.39;100.00
70815;BME280;58428;49.478;10.986;2023-08-08T09:19:17;98371.91;;;19.47;100.00
70815;BME280;58428;49.478;10.986;2023-08-08T09:21:47;98377.00;;;19.52;100.00
70815;BME280;58428;49.478;10.986;2023-08-08T09:24:14;98371.91;;;19.47;100.00
70815;BME280;58428;49.478;10.986;2023-08-08T09:26:41;98377.69;;;19.32;100.00
70815;BME280;58428;49.478;10.986;2023-08-08T09:29:07;98374.00;;;19.14;100.00
70815;BME280;58428;49.478;10.986;2023-08-08T09:31:34;98371.72;;;19.23;100.00
70815;BME280;58428;49.478;10.986;2023-08-08T09:34:01;98374.09;;;19.24;100.00
70815;BME280;58428;49.478;10.986;2023-08-08T09:36:26;98379.22;;;19.29;100.00
70815;BME280;58428;49.478;10.986;2023-08-08T09:38:54;98366.75;;;19.42;100.00
70815;BME280;58428;49.478;10.986;2023-08-08T09:41:20;98372.72;;;19.58;100.00
70815;BME280;58428;49.478;10.986;2023-08-08T09:43:50;98362.59;;;19.69;100.00
70815;BME280;58428;49.478;10.986;2023-08-08T09:46:18;98359.56;;;19.91;100.00
70815;BME280;58428;49.478;10.986;2023-08-08T09:48:44;98352.16;;;20.12;100.00
70815;BME280;58428;49.478;10.986;2023-08-08T09:51:10;98359.59;;;20.08;100.00
70815;BME280;58428;49.478;10.986;2023-08-08T09:53:36;98361.56;;;20.04;100.00
70815;BME280;58428;49.478;10.986;2023-08-08T09:56:04;98368.16;;;19.90;100.00
70815;BME280;58428;49.478;10.986;2023-08-08T09:58:30;98372.38;;;19.70;100.00
70815;BME280;58428;49.478;10.986;2023-08-08T10:00:56;98354.69;;;19.64;100.00
70815;BME280;58428;49.478;10.986;2023-08-08T10:03:22;98346.59;;;19.88;100.00
70815;BME280;58428;49.478;10.986;2023-08-08T10:05:48;98354.44;;;19.93;100.00
70815;BME280;58428;49.478;10.986;2023-08-08T10:08:18;98346.28;;;20.14;100.00
70815;BME280;58428;49.478;10.986;2023-08-08T10:10:46;98343.13;;;20.19;100.00
70815;BME280;58428;49.478;10.986;2023-08-08T10:13:23;98345.50;;;20.10;100.00
70815;BME280;58428;49.478;10.986;2023-08-08T10:15:49;98356.91;;;20.26;100.00
70815;BME280;58428;49.478;10.986;2023-08-08T10:18:15;98338.88;;;20.38;100.00
70815;BME280;58428;49.478;10.986;2023-08-08T10:20:49;98346.34;;;20.45;100.00
70815;BME280;58428;49.478;10.986;2023-08-08T10:23:18;98349.47;;;20.47;100.00
70815;BME280;58428;49.478;10.986;2023-08-08T10:25:51;98349.06;;;20.55;100.00
70815;BME280;58428;49.478;10.986;2023-08-08T10:28:20;98340.81;;;20.38;100.00
70815;BME280;58428;49.478;10.986;2023-08-08T10:30:53;98339.66;;;20.42;100.00
70815;BME280;58428;49.478;10.986;2023-08-08T10:33:24;98333.78;;;20.78;100.00
70815;BME280;58428;49.478;10.986;2023-08-08T10:36:12;98342.47;;;20.77;100.00
70815;BME280;58428;49.478;10.986;2023-08-08T10:38:44;98338.94;;;20.73;100.00
70815;BME280;58428;49.478;10.986;2023-08-08T10:41:14;98331.47;;;20.77;100.00
70815;BME280;58428;49.478;10.986;2023-08-08T10:43:52;98335.38;;;20.66;100.00
70815;BME280;58428;49.478;10.986;2023-08-08T10:46:26;98334.19;;;20.63;100.00
70815;BME280;58428;49.478;10.986;2023-08-08T10:49:08;98320.44;;;20.80;100.00
70815;BME280;58428;49.478;10.986;2023-08-08T10:51:41;98323.59;;;20.72;100.00
70815;BME280;58428;49.478;10.986;2023-08-08T10:54:15;98318.09;;;20.68;100.00
70815;BME280;58428;49.478;10.986;2023-08-08T10:56:50;98323.19;;;20.70;100.00
70815;BME280;58428;49.478;10.986;2023-08-08T10:59:21;98320.03;;;20.78;100.00
70815;BME280;58428;49.478;10.986;2023-08-08T11:01:50;98320.44;;;20.80;100.00
70815;BME280;58428;49.478;10.986;2023-08-08T11:04:19;98325.16;;;20.76;100.00
70815;BME280;58428;49.478;10.986;2023-08-08T11:06:48;98344.41;;;20.69;100.00
70815;BME280;58428;49.478;10.986;2023-08-08T11:09:16;98318.06;;;20.37;100.00
70815;BME280;58428;49.478;10.986;2023-08-08T11:11:44;98328.66;;;20.29;100.00
70815;BME280;58428;49.478;10.986;2023-08-08T11:14:14;98321.19;;;20.39;100.00
70815;BME280;58428;49.478;10.986;2023-08-08T11:16:41;98318.06;;;20.44;100.00
70815;BME280;58428;49.478;10.986;2023-08-08T11:19:10;98310.97;;;20.57;100.00
70815;BME280;58428;49.478;10.986;2023-08-08T11:21:37;98314.91;;;20.98;100.00
70815;BME280;58428;49.478;10.986;2023-08-08T11:24:05;98323.09;;;21.29;100.00
70815;BME280;58428;49.478;10.986;2023-08-08T11:26:32;98319.97;;;21.27;99.86
70815;BME280;58428;49.478;10.986;2023-08-08T11:28:59;98319.22;;;21.16;95.09
70815;BME280;58428;49.478;10.986;2023-08-08T11:31:25;98320.00;;;21.13;95.46
70815;BME280;58428;49.478;10.986;2023-08-08T11:33:55;98327.06;;;21.21;96.10
70815;BME280;58428;49.478;10.986;2023-08-08T11:36:22;98312.50;;;21.27;93.93
70815;BME280;58428;49.478;10.986;2023-08-08T11:38:49;98316.41;;;21.40;94.96
70815;BME280;58428;49.478;10.986;2023-08-08T11:41:16;98317.91;;;21.62;97.75
70815;BME280;58428;49.478;10.986;2023-08-08T11:43:44;98316.34;;;21.64;93.37
70815;BME280;58428;49.478;10.986;2023-08-08T11:46:12;98316.38;;;21.57;96.46
70815;BME280;58428;49.478;10.986;2023-08-08T11:48:41;98308.09;;;21.64;100.00
70815;BME280;58428;49.478;10.986;2023-08-08T11:51:08;98312.44;;;21.55;99.91
70815;BME280;58428;49.478;10.986;2023-08-08T11:53:35;98310.09;;;21.50;97.41
70815;BME280;58428;49.478;10.986;2023-08-08T11:56:03;98306.19;;;21.37;94.33
70815;BME280;58428;49.478;10.986;2023-08-08T11:58:31;98309.34;;;21.36;94.92
70815;BME280;58428;49.478;10.986;2023-08-08T12:00:57;98300.31;;;21.28;95.03
70815;BME280;58428;49.478;10.986;2023-08-08T12:03:25;98301.47;;;21.34;96.38
70815;BME280;58428;49.478;10.986;2023-08-08T12:05:51;98305.41;;;21.43;94.78
70815;BME280;58428;49.478;10.986;2023-08-08T12:08:21;98302.25;;;21.38;93.21
70815;BME280;58428;49.478;10.986;2023-08-08T12:10:49;98305.41;;;21.33;92.96
70815;BME280;58428;49.478;10.986;2023-08-08T12:13:23;98295.56;;;21.42;94.23
70815;BME280;58428;49.478;10.986;2023-08-08T12:15:52;98288.44;;;21.55;92.27
70815;BME280;58428;49.478;10.986;2023-08-08T12:18:18;98281.41;;;21.51;96.78
70815;BME280;58428;49.478;10.986;2023-08-08T12:20:44;98284.91;;;21.51;93.72
70815;BME280;58428;49.478;10.986;2023-08-08T12:23:11;98283.00;;;21.42;94.17
70815;BME280;58428;49.478;10.986;2023-08-08T12:25:37;98290.81;;;21.57;95.87
70815;BME280;58428;49.478;10.986;2023-08-08T12:28:04;98291.19;;;21.62;94.35
70815;BME280;58428;49.478;10.986;2023-08-08T12:30:30;98294.31;;;21.64;93.49
70815;BME280;58428;49.478;10.986;2023-08-08T12:32:56;98286.66;;;21.99;98.28
70815;BME280;58428;49.478;10.986;2023-08-08T12:35:22;98284.94;;;22.26;97.28
70815;BME280;58428;49.478;10.986;2023-08-08T12:37:48;98296.75;;;22.23;93.24
70815;BME280;58428;49.478;10.986;2023-08-08T12:40:14;98290.97;;;22.00;93.49